createdAt,value
2022-11-27T00:01:10.944Z,18.53
2022-11-27T00:03:39.245Z,18.63
2022-11-27T00:06:12.951Z,19.13
2022-11-27T00:08:40.898Z,20.77
2022-11-27T00:11:10.291Z,21.40
2022-11-27T00:13:38.583Z,22.23
2022-11-27T00:16:07.672Z,22.00
2022-11-27T00:18:36.204Z,24.77
2022-11-27T00:21:05.580Z,25.33
2022-11-27T00:23:35.675Z,24.30
2022-11-27T00:26:04.818Z,24.40
2022-11-27T00:28:33.145Z,25.53
2022-11-27T00:31:01.507Z,22.73
2022-11-27T00:33:29.735Z,23.13
2022-11-27T00:35:57.708Z,21.93
2022-11-27T00:38:25.630Z,23.97
2022-11-27T00:40:54.955Z,23.63
2022-11-27T00:43:22.847Z,21.47
2022-11-27T00:45:50.851Z,24.87
2022-11-27T00:48:18.729Z,26.33
2022-11-27T00:50:46.788Z,24.07
2022-11-27T00:53:14.685Z,23.47
2022-11-27T00:55:42.614Z,22.37
2022-11-27T00:58:11.846Z,22.73
2022-11-27T01:00:39.771Z,23.10
2022-11-27T01:03:07.883Z,22.80
2022-11-27T01:05:37.127Z,25.93
2022-11-27T01:08:05.443Z,26.50
2022-11-27T01:10:33.449Z,27.30
2022-11-27T01:13:01.327Z,27.93
2022-11-27T01:15:30.547Z,29.80
2022-11-27T01:17:58.492Z,30.10
2022-11-27T01:20:26.366Z,32.00
2022-11-27T01:22:54.384Z,32.07
2022-11-27T01:25:26.725Z,32.10
2022-11-27T01:27:55.077Z,33.87
2022-11-27T01:30:23.060Z,34.00
2022-11-27T01:32:52.349Z,33.97
2022-11-27T01:35:20.295Z,34.33
2022-11-27T01:37:48.209Z,36.57
2022-11-27T01:40:16.142Z,36.53
2022-11-27T01:42:44.044Z,38.40
2022-11-27T01:45:16.345Z,38.10
2022-11-27T01:47:47.990Z,38.90
2022-11-27T01:50:22.422Z,39.10
2022-11-27T01:52:53.895Z,38.20
2022-11-27T01:55:29.865Z,38.90
2022-11-27T01:58:01.616Z,38.27
2022-11-27T02:00:29.524Z,37.40
2022-11-27T02:02:57.775Z,38.47
2022-11-27T02:05:29.231Z,38.63
2022-11-27T02:08:00.052Z,36.67
2022-11-27T02:10:40.080Z,33.80
2022-11-27T02:13:14.505Z,33.40
2022-11-27T02:15:47.595Z,34.07
2022-11-27T02:18:23.089Z,35.10
2022-11-27T02:20:58.872Z,32.03
2022-11-27T02:23:57.303Z,31.73
2022-11-27T02:26:42.452Z,30.93
2022-11-27T02:29:13.417Z,30.33
2022-11-27T02:31:46.764Z,31.17
2022-11-27T02:34:24.514Z,32.33
2022-11-27T02:36:58.693Z,33.43
2022-11-27T02:39:32.713Z,32.67
2022-11-27T02:42:07.642Z,33.47
2022-11-27T02:44:43.071Z,33.40
2022-11-27T02:47:13.206Z,35.17
2022-11-27T02:49:44.274Z,35.30
2022-11-27T02:52:15.705Z,34.00
2022-11-27T02:54:47.065Z,36.20
2022-11-27T02:57:17.003Z,34.50
2022-11-27T02:59:46.990Z,31.63
2022-11-27T03:02:19.970Z,34.77
2022-11-27T03:04:52.505Z,32.07
2022-11-27T03:07:26.951Z,32.60
2022-11-27T03:10:00.298Z,33.00
2022-11-27T03:12:28.861Z,31.50
2022-11-27T03:14:58.254Z,32.13
2022-11-27T03:17:38.684Z,31.60
2022-11-27T03:20:12.220Z,32.30
2022-11-27T03:22:40.167Z,30.27
2022-11-27T03:25:08.903Z,31.07
2022-11-27T03:27:42.219Z,32.10
2022-11-27T03:30:13.901Z,31.57
2022-11-27T03:32:42.089Z,30.80
2022-11-27T03:35:12.886Z,30.20
2022-11-27T03:37:41.070Z,28.07
2022-11-27T03:40:10.742Z,28.40
2022-11-27T03:42:49.855Z,29.43
2022-11-27T03:45:31.247Z,28.23
2022-11-27T03:48:19.168Z,27.03
2022-11-27T03:51:00.943Z,28.63
2022-11-27T03:53:38.095Z,28.23
2022-11-27T03:56:12.806Z,29.27
2022-11-27T03:58:48.657Z,28.33
2022-11-27T04:01:21.075Z,26.43
2022-11-27T04:03:49.223Z,24.70
2022-11-27T04:06:17.388Z,24.80
2022-11-27T04:08:46.848Z,24.83
2022-11-27T04:11:15.072Z,25.83
2022-11-27T04:13:42.997Z,28.90
2022-11-27T04:16:11.159Z,29.23
2022-11-27T04:18:41.254Z,27.73
2022-11-27T04:21:09.133Z,28.00
2022-11-27T04:23:37.792Z,28.57
2022-11-27T04:26:06.174Z,28.97
2022-11-27T04:28:34.242Z,25.83
2022-11-27T04:31:02.500Z,25.63
2022-11-27T04:33:30.472Z,26.40
2022-11-27T04:35:59.759Z,23.20
2022-11-27T04:38:27.682Z,25.07
2022-11-27T04:40:55.612Z,22.67
2022-11-27T04:43:23.585Z,19.80
2022-11-27T04:45:51.742Z,21.30
2022-11-27T04:48:19.733Z,20.57
2022-11-27T04:50:47.712Z,20.60
2022-11-27T04:53:17.058Z,20.73
2022-11-27T04:55:44.951Z,21.73
2022-11-27T04:58:12.903Z,21.87
2022-11-27T05:00:40.849Z,21.53
2022-11-27T05:03:09.084Z,21.20
2022-11-27T05:05:36.984Z,22.17
2022-11-27T05:08:05.251Z,21.47
2022-11-27T05:10:34.697Z,21.10
2022-11-27T05:13:02.670Z,20.43
2022-11-27T05:15:30.578Z,21.37
2022-11-27T05:17:58.500Z,19.87
2022-11-27T05:20:26.404Z,20.13
2022-11-27T05:22:54.350Z,19.53
2022-11-27T05:25:22.255Z,21.57
2022-11-27T05:27:51.573Z,20.77
2022-11-27T05:30:19.575Z,21.07
2022-11-27T05:32:47.457Z,22.10
2022-11-27T05:35:15.498Z,21.93
2022-11-27T05:37:43.449Z,22.23
2022-11-27T05:40:11.875Z,23.07
2022-11-27T05:42:39.800Z,24.63
2022-11-27T05:45:09.964Z,24.40
2022-11-27T05:47:37.876Z,25.00
2022-11-27T05:50:06.578Z,23.90
2022-11-27T05:52:34.463Z,24.83
2022-11-27T05:55:02.469Z,23.13
2022-11-27T05:57:31.033Z,23.30
2022-11-27T05:59:59.188Z,23.27
2022-11-27T06:02:29.601Z,21.73
2022-11-27T06:04:57.815Z,23.23
2022-11-27T06:07:25.926Z,24.10
2022-11-27T06:09:53.951Z,24.53
2022-11-27T06:12:21.865Z,25.00
2022-11-27T06:14:49.805Z,25.97
2022-11-27T06:17:17.731Z,25.37
2022-11-27T06:19:47.047Z,26.13
2022-11-27T06:22:14.937Z,27.00
2022-11-27T06:24:43.345Z,26.77
2022-11-27T06:27:11.331Z,26.93
2022-11-27T06:29:39.616Z,26.57
2022-11-27T06:32:07.728Z,28.03
2022-11-27T06:34:35.690Z,27.30
2022-11-27T06:37:08.055Z,26.87
2022-11-27T06:39:39.915Z,26.83
2022-11-27T06:42:07.810Z,27.20
2022-11-27T06:44:35.726Z,26.20
2022-11-27T06:47:03.619Z,26.70
2022-11-27T06:49:31.559Z,27.60
2022-11-27T06:51:59.617Z,27.93
2022-11-27T06:54:28.979Z,27.07
2022-11-27T06:56:56.960Z,27.67
2022-11-27T06:59:25.384Z,27.10
2022-11-27T07:01:55.650Z,27.20
2022-11-27T07:04:24.424Z,25.27
2022-11-27T07:06:52.383Z,28.27
2022-11-27T07:09:20.347Z,27.50
2022-11-27T07:11:49.699Z,27.90
2022-11-27T07:14:17.575Z,29.40
2022-11-27T07:16:45.557Z,28.17
2022-11-27T07:19:14.712Z,27.77
2022-11-27T07:21:42.656Z,27.70
2022-11-27T07:24:10.585Z,29.40
2022-11-27T07:26:38.490Z,29.10
2022-11-27T07:29:07.778Z,30.53
2022-11-27T07:31:35.791Z,30.87
2022-11-27T07:34:06.896Z,30.97
2022-11-27T07:36:37.938Z,31.30
2022-11-27T07:39:05.852Z,30.23
2022-11-27T07:41:34.362Z,30.10
2022-11-27T07:44:02.424Z,31.47
2022-11-27T07:46:31.725Z,29.93
2022-11-27T07:49:00.694Z,29.73
2022-11-27T07:51:29.192Z,30.37
2022-11-27T07:53:57.120Z,30.20
2022-11-27T07:56:25.083Z,30.10
2022-11-27T07:58:52.955Z,30.17
2022-11-27T08:01:21.763Z,29.97
2022-11-27T08:03:51.423Z,31.07
2022-11-27T08:06:21.656Z,30.33
2022-11-27T08:08:50.305Z,29.87
2022-11-27T08:11:20.199Z,30.23
2022-11-27T08:13:48.270Z,29.33
2022-11-27T08:16:16.804Z,28.97
2022-11-27T08:18:44.706Z,29.80
2022-11-27T08:21:14.128Z,29.73
2022-11-27T08:23:42.225Z,31.60
2022-11-27T08:26:11.195Z,29.93
2022-11-27T08:28:39.743Z,29.17
2022-11-27T08:31:09.076Z,29.33
2022-11-27T08:33:37.611Z,30.10
2022-11-27T08:36:09.006Z,29.60
2022-11-27T08:38:39.985Z,31.60
2022-11-27T08:41:09.801Z,30.40
2022-11-27T08:43:38.165Z,31.03
2022-11-27T08:46:07.531Z,29.63
2022-11-27T08:48:36.122Z,28.83
2022-11-27T08:51:07.586Z,31.13
2022-11-27T08:53:36.162Z,29.30
2022-11-27T08:56:08.997Z,31.73
2022-11-27T08:58:37.212Z,30.13
2022-11-27T09:01:09.947Z,30.13
2022-11-27T09:03:38.206Z,31.17
2022-11-27T09:06:08.654Z,29.90
2022-11-27T09:08:36.792Z,30.10
2022-11-27T09:11:05.537Z,30.37
2022-11-27T09:13:37.037Z,31.47
2022-11-27T09:16:05.512Z,31.17
2022-11-27T09:18:34.053Z,31.57
2022-11-27T09:21:03.592Z,31.20
2022-11-27T09:23:31.656Z,31.47
2022-11-27T09:25:59.918Z,33.23
2022-11-27T09:28:31.360Z,31.57
2022-11-27T09:31:03.314Z,32.20
2022-11-27T09:33:33.461Z,31.47
2022-11-27T09:36:05.842Z,32.37
2022-11-27T09:38:34.287Z,31.57
2022-11-27T09:41:08.818Z,30.40
2022-11-27T09:43:43.085Z,29.77
2022-11-27T09:46:21.626Z,57.70
2022-11-27T09:48:52.574Z,30.23
2022-11-27T09:51:26.689Z,29.10
2022-11-27T09:54:01.651Z,30.10
2022-11-27T09:56:31.601Z,31.60
2022-11-27T09:59:01.188Z,35.07
2022-11-27T10:01:40.536Z,33.30
2022-11-27T10:04:18.984Z,32.80
2022-11-27T10:07:04.369Z,30.73
2022-11-27T10:09:47.563Z,30.00
2022-11-27T10:12:24.047Z,30.90
2022-11-27T10:15:04.196Z,31.07
2022-11-27T10:17:40.290Z,30.97
2022-11-27T10:20:28.990Z,30.63
2022-11-27T10:23:04.206Z,30.40
2022-11-27T10:25:40.652Z,31.80
2022-11-27T10:28:19.530Z,31.37
2022-11-27T10:30:53.229Z,31.33
2022-11-27T10:33:26.301Z,30.83
2022-11-27T10:35:55.033Z,31.67
2022-11-27T10:38:26.646Z,32.53
2022-11-27T10:41:06.425Z,31.43
2022-11-27T10:43:35.980Z,30.30
2022-11-27T10:46:10.290Z,30.67
2022-11-27T10:48:39.752Z,31.73
2022-11-27T10:51:15.708Z,32.47
2022-11-27T10:53:45.437Z,30.93
2022-11-27T10:56:43.480Z,31.80
2022-11-27T10:59:17.174Z,30.33
2022-11-27T11:01:47.262Z,30.73
2022-11-27T11:04:37.388Z,29.93
2022-11-27T11:07:25.437Z,31.30
2022-11-27T11:09:54.275Z,30.83
2022-11-27T11:12:24.656Z,30.00
2022-11-27T11:14:53.774Z,30.10
2022-11-27T11:17:26.184Z,30.40
2022-11-27T11:19:55.600Z,31.00
2022-11-27T11:22:23.731Z,31.83
2022-11-27T11:24:54.255Z,32.57
2022-11-27T11:27:27.478Z,31.67
2022-11-27T11:29:59.983Z,32.07
2022-11-27T11:32:30.827Z,31.90
2022-11-27T11:35:04.223Z,30.53
2022-11-27T11:37:34.897Z,30.43
2022-11-27T11:40:09.804Z,32.77
2022-11-27T11:42:50.025Z,31.77
2022-11-27T11:45:19.745Z,32.43
2022-11-27T11:47:49.276Z,33.23
2022-11-27T11:50:31.179Z,31.87
2022-11-27T11:53:03.536Z,30.23
2022-11-27T11:55:37.537Z,30.67
2022-11-27T11:58:26.716Z,29.37
2022-11-27T12:04:03.241Z,30.07
2022-11-27T12:06:44.659Z,32.30
2022-11-27T12:09:30.549Z,31.03
2022-11-27T12:12:05.803Z,30.53
2022-11-27T12:14:44.375Z,30.40
2022-11-27T12:17:25.010Z,28.60
2022-11-27T12:20:15.990Z,28.90
2022-11-27T12:23:28.282Z,28.53
2022-11-27T12:26:08.245Z,28.50
2022-11-27T12:28:57.537Z,28.00
2022-11-27T12:31:39.620Z,26.50
2022-11-27T12:34:11.505Z,28.17
2022-11-27T12:36:58.106Z,27.17
2022-11-27T12:39:33.807Z,28.23
2022-11-27T12:42:21.772Z,27.40
2022-11-27T12:44:57.468Z,27.33
2022-11-27T12:47:38.660Z,26.17
2022-11-27T12:50:15.519Z,27.17
2022-11-27T12:52:48.409Z,27.33
2022-11-27T12:55:22.853Z,27.53
2022-11-27T12:57:54.969Z,26.17
2022-11-27T13:00:26.187Z,27.03
2022-11-27T13:03:04.218Z,26.13
2022-11-27T13:05:38.747Z,26.13
2022-11-27T13:08:14.351Z,27.03
2022-11-27T13:10:50.585Z,26.10
2022-11-27T13:13:24.463Z,25.80
2022-11-27T13:15:59.003Z,26.73
2022-11-27T13:18:33.897Z,27.63
2022-11-27T13:21:05.623Z,27.67
2022-11-27T13:23:34.540Z,28.80
2022-11-27T13:26:07.188Z,28.77
2022-11-27T13:28:42.477Z,28.43
2022-11-27T13:31:20.175Z,29.00
2022-11-27T13:33:49.043Z,28.20
2022-11-27T13:36:23.479Z,27.37
2022-11-27T13:38:57.657Z,27.97
2022-11-27T13:41:33.427Z,26.67
2022-11-27T13:44:02.188Z,31.10
2022-11-27T13:46:32.460Z,29.47
2022-11-27T13:49:03.579Z,28.97
2022-11-27T13:51:33.800Z,27.77
2022-11-27T13:54:10.297Z,27.93
2022-11-27T13:56:40.202Z,29.47
2022-11-27T13:59:16.723Z,27.30
2022-11-27T14:01:55.776Z,27.73
2022-11-27T14:04:23.864Z,26.47
2022-11-27T14:06:59.180Z,27.90
2022-11-27T14:09:36.920Z,26.97
2022-11-27T14:12:20.115Z,27.53
2022-11-27T14:15:01.790Z,26.73
2022-11-27T14:17:36.987Z,27.30
2022-11-27T14:20:20.165Z,27.50
2022-11-27T14:25:38.985Z,27.57
2022-11-27T14:28:15.772Z,27.70
2022-11-27T14:30:48.174Z,26.77
2022-11-27T14:33:19.259Z,26.73
2022-11-27T14:35:49.831Z,27.83
2022-11-27T14:38:17.945Z,27.80
2022-11-27T14:40:46.335Z,31.37
2022-11-27T14:43:18.607Z,29.57
2022-11-27T14:45:49.586Z,28.27
2022-11-27T14:48:22.150Z,28.67
2022-11-27T14:50:51.517Z,27.37
2022-11-27T14:53:22.628Z,28.43
2022-11-27T14:55:53.866Z,28.20
2022-11-27T14:58:25.743Z,30.70
2022-11-27T15:00:57.667Z,31.07
2022-11-27T15:03:26.795Z,31.00
2022-11-27T15:05:58.535Z,32.07
2022-11-27T15:08:27.770Z,31.30
2022-11-27T15:10:57.865Z,32.13
2022-11-27T15:13:29.494Z,32.83
2022-11-27T15:16:01.960Z,32.30
2022-11-27T15:18:32.257Z,34.87
2022-11-27T15:21:01.287Z,35.33
2022-11-27T15:23:31.520Z,33.93
2022-11-27T15:26:15.922Z,34.73
2022-11-27T15:28:52.516Z,37.30
2022-11-27T15:31:29.600Z,36.23
2022-11-27T15:34:00.961Z,39.40
2022-11-27T15:36:35.992Z,37.50
2022-11-27T15:39:17.855Z,38.87
2022-11-27T15:41:54.646Z,40.47
2022-11-27T15:44:25.025Z,41.17
2022-11-27T15:46:55.626Z,40.90
2022-11-27T15:49:24.189Z,40.97
2022-11-27T15:51:52.562Z,40.27
2022-11-27T15:54:20.474Z,39.87
2022-11-27T15:56:48.455Z,41.27
2022-11-27T15:59:16.761Z,41.77
2022-11-27T16:01:46.140Z,41.67
2022-11-27T16:04:14.220Z,41.80
2022-11-27T16:06:42.191Z,39.33
2022-11-27T16:09:10.126Z,38.90
2022-11-27T16:11:38.080Z,38.90
2022-11-27T16:14:06.078Z,39.13
2022-11-27T16:16:35.321Z,40.63
2022-11-27T16:19:06.532Z,40.97
2022-11-27T16:21:35.933Z,43.30
2022-11-27T16:24:06.196Z,43.13
2022-11-27T16:26:34.560Z,45.37
2022-11-27T16:29:02.574Z,45.43
2022-11-27T16:31:30.993Z,45.17
2022-11-27T16:33:59.751Z,44.63
2022-11-27T16:36:30.046Z,87.37
2022-11-27T16:38:58.364Z,44.43
2022-11-27T16:41:27.020Z,48.03
2022-11-27T16:43:57.849Z,44.47
2022-11-27T16:46:28.395Z,44.27
2022-11-27T16:48:57.706Z,42.90
2022-11-27T16:51:28.447Z,43.97
2022-11-27T16:53:59.423Z,43.43
2022-11-27T16:56:29.372Z,43.13
2022-11-27T16:59:02.817Z,42.67
2022-11-27T17:01:36.064Z,41.47
2022-11-27T17:04:07.253Z,42.47
2022-11-27T17:06:36.318Z,41.00
2022-11-27T17:09:07.392Z,42.30
2022-11-27T17:11:37.389Z,51.87
2022-11-27T17:14:07.329Z,43.63
2022-11-27T17:16:37.025Z,39.60
2022-11-27T17:19:05.686Z,41.03
2022-11-27T17:21:35.210Z,40.30
2022-11-27T17:24:13.176Z,40.83
2022-11-27T17:26:44.936Z,42.43
2022-11-27T17:29:14.554Z,44.67
2022-11-27T17:31:42.930Z,42.60
2022-11-27T17:34:13.228Z,41.43
2022-11-27T17:36:43.001Z,41.07
2022-11-27T17:39:14.832Z,41.90
2022-11-27T17:41:44.879Z,43.07
2022-11-27T17:44:14.095Z,41.40
2022-11-27T17:46:44.971Z,41.17
2022-11-27T17:49:13.544Z,42.00
2022-11-27T17:51:42.053Z,44.13
2022-11-27T17:54:12.891Z,42.30
2022-11-27T17:56:40.981Z,43.77
2022-11-27T17:59:10.681Z,42.60
2022-11-27T18:01:39.844Z,44.60
2022-11-27T18:04:10.408Z,42.73
2022-11-27T18:06:38.803Z,44.40
2022-11-27T18:09:09.400Z,44.57
2022-11-27T18:11:39.704Z,45.20
2022-11-27T18:14:08.168Z,46.30
2022-11-27T18:16:38.125Z,46.90
2022-11-27T18:19:07.714Z,48.70
2022-11-27T18:21:36.254Z,48.50
2022-11-27T18:27:11.076Z,46.47
2022-11-27T18:29:41.720Z,48.50
2022-11-27T18:32:10.259Z,46.90
2022-11-27T18:34:38.345Z,50.00
2022-11-27T18:37:07.119Z,48.13
2022-11-27T18:39:36.401Z,49.00
2022-11-27T18:42:06.753Z,48.83
2022-11-27T18:44:39.577Z,47.87
2022-11-27T18:47:11.510Z,49.40
2022-11-27T18:49:40.529Z,46.93
2022-11-27T18:52:09.862Z,47.87
2022-11-27T18:54:38.306Z,48.40
2022-11-27T18:57:07.910Z,48.80
2022-11-27T18:59:36.385Z,49.60
2022-11-27T19:02:04.778Z,51.40
2022-11-27T19:04:32.862Z,49.47
2022-11-27T19:07:00.899Z,48.80
2022-11-27T19:09:29.276Z,51.07
2022-11-27T19:11:57.268Z,50.47
2022-11-27T19:14:26.610Z,49.93
2022-11-27T19:16:54.596Z,48.37
2022-11-27T19:19:53.324Z,49.77
2022-11-27T19:22:13.177Z,48.23
2022-11-27T19:24:41.449Z,50.50
2022-11-27T19:27:09.462Z,50.60
2022-11-27T19:29:38.816Z,49.10
2022-11-27T19:32:06.845Z,50.60
2022-11-27T19:34:35.085Z,51.37
2022-11-27T19:37:03.126Z,52.30
2022-11-27T19:39:31.065Z,50.93
2022-11-27T19:41:59.300Z,52.50
2022-11-27T19:44:27.601Z,50.00
2022-11-27T19:46:56.947Z,53.77
2022-11-27T19:49:26.150Z,52.53
2022-11-27T19:51:54.243Z,53.37
2022-11-27T19:54:22.192Z,54.40
2022-11-27T19:56:51.650Z,52.57
2022-11-27T19:59:24.380Z,52.07
2022-11-27T20:01:56.224Z,54.20
2022-11-27T20:04:29.249Z,52.23
2022-11-27T20:06:57.183Z,53.00
2022-11-27T20:09:25.216Z,54.03
2022-11-27T20:11:53.486Z,54.63
2022-11-27T20:14:21.744Z,55.00
2022-11-27T20:16:49.904Z,54.13
2022-11-27T20:19:20.214Z,55.93
2022-11-27T20:21:48.529Z,55.73
2022-11-27T20:24:17.141Z,58.47
2022-11-27T20:26:45.764Z,57.07
2022-11-27T20:29:15.742Z,56.57
2022-11-27T20:31:45.102Z,54.63
2022-11-27T20:34:20.399Z,58.70
2022-11-27T20:36:49.233Z,57.23
2022-11-27T20:39:21.212Z,59.47
2022-11-27T20:41:53.497Z,56.00
2022-11-27T20:44:23.483Z,58.63
2022-11-27T20:46:52.091Z,57.67
2022-11-27T20:49:22.760Z,57.33
2022-11-27T20:51:51.488Z,58.80
2022-11-27T20:54:23.102Z,59.30
2022-11-27T20:56:51.453Z,59.43
2022-11-27T20:59:20.073Z,58.87
2022-11-27T21:01:48.630Z,59.20
2022-11-27T21:04:20.770Z,55.90
2022-11-27T21:06:50.878Z,58.97
2022-11-27T21:09:20.661Z,58.23
2022-11-27T21:11:49.027Z,57.70
2022-11-27T21:14:18.274Z,57.17
2022-11-27T21:16:48.859Z,57.83
2022-11-27T21:19:20.095Z,56.27
2022-11-27T21:21:48.766Z,55.37
2022-11-27T21:24:18.580Z,55.60
2022-11-27T21:26:47.338Z,53.67
2022-11-27T21:29:16.915Z,57.60
2022-11-27T21:31:47.049Z,57.57
2022-11-27T21:34:16.428Z,56.47
2022-11-27T21:36:45.559Z,55.90
2022-11-27T21:39:20.236Z,56.20
2022-11-27T21:41:52.349Z,55.83
2022-11-27T21:44:22.342Z,54.00
2022-11-27T21:46:51.302Z,53.43
2022-11-27T21:49:21.664Z,54.00
2022-11-27T21:51:53.235Z,55.33
2022-11-27T21:54:24.622Z,52.57
2022-11-27T21:56:54.227Z,52.60
2022-11-27T21:59:22.329Z,52.63
2022-11-27T22:01:50.412Z,54.10
2022-11-27T22:04:18.894Z,52.73
2022-11-27T22:06:47.192Z,55.80
2022-11-27T22:09:16.220Z,53.27
2022-11-27T22:11:45.064Z,52.60
2022-11-27T22:14:16.317Z,54.03
2022-11-27T22:16:46.737Z,52.40
2022-11-27T22:19:16.562Z,53.10
2022-11-27T22:21:45.517Z,52.90
2022-11-27T22:24:18.860Z,52.90
2022-11-27T22:26:48.475Z,53.07
2022-11-27T22:29:18.094Z,58.47
2022-11-27T22:31:46.283Z,52.00
2022-11-27T22:34:16.962Z,52.83
2022-11-27T22:36:46.135Z,51.60
2022-11-27T22:39:14.424Z,52.67
2022-11-27T22:41:43.215Z,52.30
2022-11-27T22:44:15.698Z,51.80
2022-11-27T22:46:46.071Z,53.60
2022-11-27T22:49:16.421Z,52.77
2022-11-27T22:51:44.889Z,53.10
2022-11-27T22:54:17.205Z,52.17
2022-11-27T22:56:46.646Z,52.87
2022-11-27T23:02:07.226Z,55.17
2022-11-27T23:04:37.757Z,51.50
2022-11-27T23:07:06.714Z,53.77
2022-11-27T23:09:34.873Z,51.60
2022-11-27T23:12:02.921Z,54.80
2022-11-27T23:14:30.861Z,54.13
2022-11-27T23:16:58.922Z,54.90
2022-11-27T23:19:28.289Z,55.87
2022-11-27T23:21:56.309Z,53.87
2022-11-27T23:24:24.478Z,55.77
2022-11-27T23:26:52.445Z,54.10
2022-11-27T23:29:20.480Z,54.27
2022-11-27T23:31:48.591Z,55.33
2022-11-27T23:34:20.157Z,55.07
2022-11-27T23:36:49.544Z,53.83
2022-11-27T23:39:17.577Z,55.23
2022-11-27T23:41:46.356Z,54.70
2022-11-27T23:44:14.263Z,54.83
2022-11-27T23:46:42.279Z,54.90
2022-11-27T23:49:10.320Z,53.80
2022-11-27T23:51:38.282Z,55.83
2022-11-27T23:54:11.161Z,55.50
2022-11-27T23:56:39.910Z,55.03
2022-11-27T23:59:08.087Z,53.97
